Marfa, TX

7:46 PM CDT on March 31, 2015 (GMT -0500)
Marfa | | Change Station
CLOSE
Current Station
Personal Weather Station
Location: Marfa, TX
Elevation: 4664 ft
Nearby Weather Stations

Elev 4664 ft 30.31 °N, 104.02 °W | Updated 31 seconds ago

Overcast
Overcast
68.2 °F
Feels Like 68.2 °F
N
3.1
Wind Variable Wind from SW
Gusts 4.5 mph

Today
High -- | Low -- °F
--% Chance of Precip.
Yesterday
High -- | Low -- °F
Precip. -- in
7:46 AM 8:14 PM
Waxing Gibbous, 89% visible
Pressure 30.07 in
Visibility 10.0 miles
Clouds Overcast 11000 ft
Dew Point 40 °F
Humidity 35%
Rainfall 0.00 in
Snow Depth Not available.
UV 0 out of 12
Pollen 11.00 out of 12
Air Quality Not available.
Flu Activity Not available.
METAR KMRF 010035Z AUTO 27006KT 10SM OVC110 19/04 A3007 RMK AO1

More Conditions Fewer Conditions

Pressure 30.07 in
Visibility 10.0 miles
Clouds Overcast 11000 ft
Dew Point 40 °F
Humidity 35%
Rainfall 0.00 in
Snow Depth Not available.
UV 0 out of 12
Pollen 11.00 out of 12
Air Quality Not available.
Flu Activity Not available.
METAR KMRF 010035Z AUTO 27006KT 10SM OVC110 19/04 A3007 RMK AO1

More Conditions Fewer Conditions

10-Day Weather Forecast

Almanac

Astronomy

Mar. 31, 2015 Rise Set
Actual Time
Civil Twilight
Nautical Twilight
Astronomical Twilight
Moon
Length of Visible Light
Length of Day
Tomorrow will be .
, % of the Moon is Illuminated

Today's Extremes

State Highs State Lows

Community

WunderPhotos

Upload Photos

1,809,887 photos uploaded!

WunderBlogs® & News

Nearby

Air Quality

  Air Quality AQ Index Pollutant
Not available.

Snow Depth

Station Depth Elevation

Earthquake Activity

City Distance Mag. Time & Date
Minimum magnitude displayed is 2.5.

Coastal Water Temperatures

Place Temperature

Stations

Nearby Weather Stations

Station Location Temp. Windchill Dew Point Humidity Wind Precip. Elev Updated Type